Hlavní strana
METAR-TAF:

METAR-TAF

Letiště :

Čeboksary, Rusko

zeměpisná šířka: 56-05-24N, zeměpisná délka: 047-20-50E, výška: 171 m

Aktuální stav počasí

Zpráva byla vytvořena před 44 minutami, v 17:30 UTC
Západní vítr 4 kt
Teplota 16°C
Vlhkost vzduchu 51%
Tlak 1021 hPa
Viditelnost 10 km a více
Žádná oblačnost pod 1500 m, nevyskytují se cumulonimby.

METAR: UWKS 251730Z 26002MPS CAVOK 16/06 Q1021 R24/010060 NOSIG RMK QFE751

Čas: 21:14 (18:14 UTC)

Předpověď počasí

Zpráva byla vytvořena před 1 hodinou a 27 minutami, v 16:47 UTC
Předpověď platná od 25 v 18 UTC do 26 v 03 UTC
Západoseverozápadní vítr 6 kt s nárazy do 16 kt
Viditelnost 10 km a více
Polojasno ve výšce 4000 ft

TAF: UWKS 251647Z 2518/2603 29003G08MPS 9999 SCT040 TX16/2518Z TN11/2601Z

Stav a předpovědi počasí z více než 4 000 letišť (zprávy METAR a TAF).

Červené a žluté tečky na mapě představují dostupné meteorologické stanice.

Když kurzor umístíte na tečku, zobrazí se název stanice.

Pak kliknutím zobrazíte stav a předpověď počasí.

Chcete-li změnit mapu, kliknutím na zelené tlačítko se znaménkem +mapu přiblížíte, kliknutím na zelené tlačítko se znaménkem – mapu oddálíte a kliknutím na zelené šipky přejdete na sousední mapy.


METAR-TAF: